Time;durP1;ratioP1;P1;durP2;ratioP2;P2;SDS_P1;SDS_P2;PMS_P1;PMS_P2;Temp;Humidity;BMP_temperature;BMP_pressure;BME280_temperature;BME280_humidity;BME280_pressure;Samples;Min_cycle;Max_cycle;Signal;HPM_P1;HPM_P2
2022/05/18 00:01:23;;;;;;;4.40;2.00;;;23.10;81.50;;;;;;5067269;28;20227;-35
2022/05/18 00:03:52;;;;;;;3.85;2.42;;;23.00;81.50;;;;;;5041724;28;20205;-34
2022/05/18 00:06:22;;;;;;;3.03;2.00;;;23.00;82.20;;;;;;5028977;28;20201;-34
2022/05/18 00:08:49;;;;;;;3.65;1.98;;;23.00;81.80;;;;;;5047639;28;20262;-33
2022/05/18 00:11:18;;;;;;;3.92;2.22;;;22.90;81.90;;;;;;5054975;28;20310;-34
2022/05/18 00:13:47;;;;;;;3.78;2.20;;;22.90;81.70;;;;;;5067512;28;20202;-34
2022/05/18 00:16:18;;;;;;;4.60;2.10;;;22.90;81.80;;;;;;5067195;28;20257;-33
2022/05/18 00:18:46;;;;;;;3.47;2.30;;;22.80;82.00;;;;;;5067360;28;20222;-34
2022/05/18 00:21:16;;;;;;;4.25;2.40;;;22.80;81.90;;;;;;5034369;28;20239;-34
2022/05/18 00:23:45;;;;;;;2.58;1.80;;;22.70;81.90;;;;;;5031410;28;20223;-38
2022/05/18 00:26:12;;;;;;;3.15;2.17;;;22.70;81.80;;;;;;5065909;28;20196;-38
2022/05/18 00:28:39;;;;;;;3.25;2.20;;;22.70;82.00;;;;;;5065811;28;20241;-38
2022/05/18 00:31:07;;;;;;;3.50;2.03;;;22.60;81.90;;;;;;5067380;28;20277;-38
2022/05/18 00:33:36;;;;;;;2.55;2.08;;;22.60;81.90;;;;;;5066112;28;20235;-38
2022/05/18 00:36:04;;;;;;;3.15;2.15;;;22.60;82.20;;;;;;5063876;28;20298;-39
2022/05/18 00:38:34;;;;;;;3.67;2.15;;;22.50;82.10;;;;;;5050492;28;20203;-38
2022/05/18 00:41:01;;;;;;;3.20;2.15;;;22.50;82.40;;;;;;5056734;28;20351;-38
2022/05/18 00:43:28;;;;;;;5.03;1.83;;;22.50;82.50;;;;;;5045303;28;20224;-38
2022/05/18 00:46:02;;;;;;;3.80;2.22;;;22.40;82.20;;;;;;5054394;28;20299;-38
2022/05/18 00:48:31;;;;;;;2.88;1.80;;;22.40;82.50;;;;;;5070716;28;20231;-38
2022/05/18 00:51:05;;;;;;;2.83;2.10;;;22.30;82.40;;;;;;5067093;28;20266;-38
2022/05/18 00:53:38;;;;;;;4.47;2.10;;;22.30;82.40;;;;;;5056234;28;20200;-38
2022/05/18 00:56:11;;;;;;;4.53;2.08;;;22.30;82.50;;;;;;5028619;28;20241;-38
2022/05/18 00:58:55;;;;;;;4.05;1.85;;;22.30;82.60;;;;;;5034976;28;20216;-38
2022/05/18 01:01:23;;;;;;;4.32;2.15;;;22.20;82.50;;;;;;5047494;28;20318;-38
2022/05/18 01:03:53;;;;;;;4.50;2.10;;;22.20;82.50;;;;;;5040563;28;20304;-38
2022/05/18 01:06:51;;;;;;;5.88;2.00;;;22.20;82.80;;;;;;5048737;28;20279;-38
2022/05/18 01:09:24;;;;;;;5.05;2.30;;;22.20;83.30;;;;;;5050190;28;20235;-38
2022/05/18 01:11:54;;;;;;;2.75;1.90;;;22.10;83.10;;;;;;5048902;28;20242;-38
2022/05/18 01:14:30;;;;;;;4.03;1.92;;;22.10;83.00;;;;;;5049329;28;20691;-38
2022/05/18 01:16:57;;;;;;;6.03;2.10;;;22.10;83.30;;;;;;5056947;28;20213;-38
2022/05/18 01:19:34;;;;;;;4.03;1.92;;;22.00;83.20;;;;;;5052686;28;21283;-38
2022/05/18 01:22:23;;;;;;;3.38;1.75;;;22.10;83.60;;;;;;5049906;28;20704;-38
2022/05/18 01:25:12;;;;;;;2.10;1.80;;;22.00;83.50;;;;;;5049740;28;20754;-33
2022/05/18 01:27:41;;;;;;;3.90;1.98;;;22.00;83.40;;;;;;5048443;28;20693;-34
2022/05/18 01:30:12;;;;;;;3.75;1.83;;;22.00;83.60;;;;;;5048130;28;20663;-33
2022/05/18 01:32:40;;;;;;;3.33;1.60;;;22.00;83.50;;;;;;5034714;28;20308;-34
2022/05/18 01:35:09;;;;;;;3.30;1.88;;;21.90;83.30;;;;;;5061775;28;20615;-33
2022/05/18 01:37:36;;;;;;;2.90;1.83;;;21.90;83.70;;;;;;5056083;28;20860;-34
2022/05/18 01:40:13;;;;;;;3.28;1.90;;;21.90;83.70;;;;;;5069581;28;20206;-34
2022/05/18 01:42:44;;;;;;;5.60;1.98;;;21.90;84.00;;;;;;5067856;28;20242;-34
2022/05/18 01:45:15;;;;;;;3.95;2.28;;;21.90;84.00;;;;;;5057638;28;20758;-33
2022/05/18 01:47:48;;;;;;;2.53;1.90;;;21.90;83.60;;;;;;5036313;28;20698;-34
2022/05/18 01:50:24;;;;;;;3.72;1.80;;;21.90;84.00;;;;;;5039126;28;20296;-34
2022/05/18 01:52:53;;;;;;;2.88;1.77;;;21.90;84.50;;;;;;5049157;28;20291;-34
2022/05/18 01:55:24;;;;;;;3.05;1.50;;;21.80;83.60;;;;;;5048940;28;20681;-34
2022/05/18 01:57:51;;;;;;;3.28;1.90;;;21.80;83.70;;;;;;5048562;28;20196;-34
2022/05/18 02:00:20;;;;;;;2.80;1.60;;;21.90;83.70;;;;;;5048082;28;20623;-35
2022/05/18 02:02:47;;;;;;;2.47;1.73;;;21.90;83.70;;;;;;5035272;28;20326;-34
2022/05/18 02:05:14;;;;;;;2.53;1.80;;;21.90;83.80;;;;;;5033478;28;20200;-33
2022/05/18 02:07:41;;;;;;;2.90;1.95;;;21.90;83.70;;;;;;5049185;28;20196;-33
2022/05/18 02:10:13;;;;;;;4.40;1.67;;;21.90;83.70;;;;;;5028763;28;20692;-37
2022/05/18 02:12:43;;;;;;;3.30;1.92;;;21.90;83.80;;;;;;5044045;28;20212;-34
2022/05/18 02:15:13;;;;;;;2.15;1.95;;;21.80;83.90;;;;;;5029218;28;20742;-34
2022/05/18 02:17:40;;;;;;;4.72;1.90;;;21.80;83.80;;;;;;5057777;28;20262;-37
2022/05/18 02:20:11;;;;;;;2.65;1.60;;;21.80;83.90;;;;;;5037137;28;20208;-38
2022/05/18 02:22:41;;;;;;;2.53;1.45;;;21.80;84.10;;;;;;5034143;28;20232;-38
2022/05/18 02:25:11;;;;;;;3.28;2.05;;;21.80;84.20;;;;;;5064035;28;20199;-39
2022/05/18 02:27:39;;;;;;;2.38;1.70;;;21.80;84.00;;;;;;5068430;28;20231;-38
2022/05/18 02:30:08;;;;;;;5.85;2.08;;;21.80;84.60;;;;;;5063291;28;20195;-38
2022/05/18 02:32:36;;;;;;;2.83;1.70;;;21.80;84.40;;;;;;5067278;28;20223;-38
2022/05/18 02:35:05;;;;;;;2.65;1.50;;;21.70;84.30;;;;;;5068575;28;20206;-38
2022/05/18 02:37:33;;;;;;;3.47;2.00;;;21.70;84.50;;;;;;5030940;28;20295;-38
2022/05/18 02:40:04;;;;;;;3.17;1.63;;;21.70;84.60;;;;;;5033325;28;20207;-38
2022/05/18 02:42:32;;;;;;;1.88;1.60;;;21.70;84.80;;;;;;5028141;28;20228;-38
2022/05/18 02:44:59;;;;;;;2.22;1.80;;;21.70;84.80;;;;;;5055940;28;20530;-38
2022/05/18 02:47:28;;;;;;;3.40;1.77;;;21.70;84.90;;;;;;5053423;28;20199;-38
2022/05/18 02:49:56;;;;;;;3.38;1.65;;;21.60;84.90;;;;;;5068368;28;20204;-37
2022/05/18 02:52:23;;;;;;;3.10;1.58;;;21.60;84.80;;;;;;5065058;28;20211;-38
2022/05/18 02:57:39;;;;;;;4.82;1.77;;;21.60;85.10;;;;;;5041694;28;20295;-38
2022/05/18 03:00:07;;;;;;;2.92;1.70;;;21.60;85.20;;;;;;5048265;28;20306;-38
2022/05/18 03:02:35;;;;;;;3.05;1.88;;;21.60;85.20;;;;;;5048312;28;20224;-38
2022/05/18 03:05:03;;;;;;;3.13;2.10;;;21.60;85.30;;;;;;5044383;28;20203;-38
2022/05/18 03:07:30;;;;;;;2.20;1.98;;;21.60;85.50;;;;;;5028098;28;20200;-38
2022/05/18 03:10:03;;;;;;;4.03;1.92;;;21.60;85.40;;;;;;5046116;28;20243;-34
2022/05/18 03:12:30;;;;;;;4.00;2.08;;;21.60;85.50;;;;;;5058300;28;20211;-34
2022/05/18 03:14:57;;;;;;;3.22;1.80;;;21.60;85.60;;;;;;5034624;28;20659;-34
2022/05/18 03:17:25;;;;;;;2.55;1.92;;;21.60;85.80;;;;;;5049600;28;20215;-33
2022/05/18 03:19:52;;;;;;;3.20;1.90;;;21.60;85.80;;;;;;5068186;28;20257;-34
2022/05/18 03:25:10;;;;;;;4.25;2.15;;;21.60;85.90;;;;;;5065359;28;20230;-34
2022/05/18 03:27:44;;;;;;;4.35;2.20;;;21.60;86.00;;;;;;5044120;28;20320;-34
2022/05/18 03:30:15;;;;;;;2.97;2.00;;;21.50;86.10;;;;;;5029629;28;20292;-33
2022/05/18 03:32:43;;;;;;;2.78;1.92;;;21.50;85.80;;;;;;5047563;28;20212;-34
2022/05/18 03:35:10;;;;;;;3.97;1.80;;;21.50;86.00;;;;;;5034567;28;20232;-33
2022/05/18 03:37:38;;;;;;;4.68;1.70;;;21.50;86.10;;;;;;5049155;28;20195;-34
2022/05/18 03:40:09;;;;;;;2.95;1.85;;;21.50;86.10;;;;;;5067337;28;20199;-34
2022/05/18 03:42:36;;;;;;;3.47;2.13;;;21.50;86.60;;;;;;5067273;28;20211;-33
2022/05/18 03:45:06;;;;;;;3.35;2.13;;;21.50;86.40;;;;;;5037672;28;20200;-34
2022/05/18 03:47:33;;;;;;;3.13;2.10;;;21.50;86.60;;;;;;5028882;28;20608;-34
2022/05/18 03:50:00;;;;;;;3.53;2.13;;;21.50;86.80;;;;;;5027844;28;20213;-33
2022/05/18 03:52:31;;;;;;;4.25;2.15;;;21.50;86.70;;;;;;5050884;28;20592;-34
2022/05/18 03:55:00;;;;;;;2.30;1.75;;;21.50;87.00;;;;;;5067355;28;20669;-34
2022/05/18 03:57:27;;;;;;;4.30;2.22;;;21.50;87.00;;;;;;5067088;28;20220;-34
2022/05/18 03:59:55;;;;;;;3.85;2.10;;;21.50;87.10;;;;;;5065850;28;20679;-34
2022/05/18 04:02:22;;;;;;;2.42;2.03;;;21.50;87.10;;;;;;5032809;28;20256;-34
2022/05/18 04:04:49;;;;;;;3.70;2.30;;;21.50;87.20;;;;;;5032840;28;20215;-34
2022/05/18 04:07:17;;;;;;;4.07;2.67;;;21.50;87.30;;;;;;5066643;28;20216;-34
2022/05/18 04:09:47;;;;;;;2.80;2.20;;;21.50;87.20;;;;;;5049801;28;20235;-34
2022/05/18 04:12:14;;;;;;;3.45;1.90;;;21.50;87.50;;;;;;5047114;28;20675;-38
2022/05/18 04:14:44;;;;;;;7.35;2.22;;;21.50;87.40;;;;;;5047364;28;20376;-38
2022/05/18 04:17:14;;;;;;;3.75;2.28;;;21.50;87.40;;;;;;5056388;28;20231;-38
2022/05/18 04:19:48;;;;;;;4.25;2.03;;;21.60;87.50;;;;;;5054661;28;20199;-38
2022/05/18 04:22:16;;;;;;;3.00;2.10;;;21.60;87.60;;;;;;5049426;28;20295;-38
2022/05/18 04:24:43;;;;;;;4.32;2.33;;;21.60;88.40;;;;;;5030667;28;20225;-38
2022/05/18 04:27:10;;;;;;;4.88;2.78;;;21.60;87.80;;;;;;5030834;28;20228;-38
2022/05/18 04:29:38;;;;;;;2.35;2.13;;;21.70;87.80;;;;;;5036871;28;20211;-38
2022/05/18 04:32:11;;;;;;;5.13;2.65;;;21.70;88.00;;;;;;5031154;28;20247;-38
2022/05/18 04:34:38;;;;;;;3.60;2.35;;;21.70;88.00;;;;;;5062144;28;20222;-38
2022/05/18 04:37:06;;;;;;;4.65;2.75;;;21.70;88.20;;;;;;5046102;28;20206;-38
2022/05/18 04:39:35;;;;;;;2.75;2.20;;;21.70;88.30;;;;;;5036819;28;20303;-38
2022/05/18 04:42:03;;;;;;;4.00;2.20;;;21.80;88.40;;;;;;5030809;28;20225;-38
2022/05/18 04:44:32;;;;;;;5.90;2.67;;;21.80;88.40;;;;;;5031202;28;20193;-38
2022/05/18 04:47:04;;;;;;;4.05;2.50;;;21.80;88.60;;;;;;5035018;28;20567;-38
2022/05/18 04:49:34;;;;;;;6.10;3.33;;;21.80;88.70;;;;;;5046157;28;20232;-39
2022/05/18 04:52:05;;;;;;;5.90;2.47;;;21.90;88.80;;;;;;5036739;28;20496;-38
2022/05/18 04:54:34;;;;;;;7.80;2.90;;;21.90;88.70;;;;;;5050381;28;20839;-38
2022/05/18 04:57:01;;;;;;;4.70;2.38;;;21.90;88.60;;;;;;5049933;28;20271;-38
2022/05/18 04:59:29;;;;;;;9.88;3.10;;;22.00;88.90;;;;;;5050962;28;20208;-38
2022/05/18 05:01:59;;;;;;;5.53;2.67;;;22.00;88.90;;;;;;5056274;28;20223;-38
2022/05/18 05:04:26;;;;;;;5.72;2.80;;;22.10;89.20;;;;;;5048453;28;20564;-39
2022/05/18 05:06:56;;;;;;;6.07;2.72;;;22.10;89.30;;;;;;5048350;28;20207;-38
2022/05/18 05:09:26;;;;;;;5.72;2.90;;;22.20;89.40;;;;;;5042140;28;20303;-39
2022/05/18 05:11:58;;;;;;;6.03;2.58;;;22.20;89.50;;;;;;5043642;28;20200;-38
2022/05/18 05:14:28;;;;;;;7.05;2.83;;;22.30;89.60;;;;;;5049461;28;20232;-37
2022/05/18 05:16:55;;;;;;;5.05;2.90;;;22.30;89.70;;;;;;5054028;28;20208;-38
2022/05/18 05:19:22;;;;;;;3.42;2.67;;;22.40;89.90;;;;;;5047860;28;20211;-37
2022/05/18 05:21:52;;;;;;;5.43;2.83;;;22.40;89.80;;;;;;5048799;28;20212;-37
2022/05/18 05:24:22;;;;;;;5.70;2.85;;;22.50;90.00;;;;;;5050099;28;20200;-38
2022/05/18 05:26:51;;;;;;;5.30;3.25;;;22.50;90.00;;;;;;5048709;28;20270;-38
2022/05/18 05:29:21;;;;;;;8.50;3.28;;;22.50;90.00;;;;;;5048990;28;20663;-38
2022/05/18 05:31:48;;;;;;;5.90;2.97;;;22.60;90.10;;;;;;5048654;28;20200;-39
2022/05/18 05:34:16;;;;;;;5.10;2.70;;;22.60;90.10;;;;;;5048313;28;20208;-34
2022/05/18 05:36:43;;;;;;;5.20;2.72;;;22.60;90.10;;;;;;5049582;28;20310;-34
2022/05/18 05:39:10;;;;;;;4.53;2.83;;;22.70;90.10;;;;;;5049833;28;20204;-34
2022/05/18 05:41:42;;;;;;;6.15;3.10;;;22.70;90.10;;;;;;5048565;28;20206;-34
2022/05/18 05:44:10;;;;;;;8.13;3.40;;;22.80;90.30;;;;;;5042293;28;20285;-34
2022/05/18 05:46:37;;;;;;;10.38;3.97;;;22.80;90.30;;;;;;5049142;28;20199;-34
2022/05/18 05:49:05;;;;;;;11.57;3.63;;;22.80;90.20;;;;;;5054684;28;20242;-34
2022/05/18 05:51:32;;;;;;;12.38;4.00;;;22.90;90.30;;;;;;5049258;28;20216;-34
2022/05/18 05:53:59;;;;;;;7.53;3.25;;;22.90;90.30;;;;;;5047506;28;20212;-34
2022/05/18 05:56:27;;;;;;;7.70;3.15;;;22.90;90.40;;;;;;5048086;28;20293;-34
2022/05/18 05:58:56;;;;;;;6.57;2.90;;;22.90;90.40;;;;;;5049300;28;20262;-34
2022/05/18 06:01:26;;;;;;;6.80;3.10;;;23.00;90.50;;;;;;5035556;28;20411;-34
2022/05/18 06:04:03;;;;;;;4.30;3.28;;;23.00;90.50;;;;;;5048510;28;20211;-34
2022/05/18 06:06:31;;;;;;;4.18;2.90;;;23.00;90.60;;;;;;5028967;28;20258;-34
2022/05/18 06:09:01;;;;;;;5.05;3.13;;;23.10;90.60;;;;;;5039949;28;20216;-34
2022/05/18 06:11:29;;;;;;;6.35;3.00;;;23.10;90.60;;;;;;5046176;28;20200;-35
2022/05/18 06:13:56;;;;;;;9.10;3.00;;;23.20;90.70;;;;;;5046044;28;20696;-35
2022/05/18 06:16:24;;;;;;;8.23;3.80;;;23.20;90.80;;;;;;5044071;28;20201;-34
2022/05/18 06:18:53;;;;;;;7.60;3.40;;;23.20;90.80;;;;;;5050176;28;20592;-33
2022/05/18 06:21:23;;;;;;;10.10;3.88;;;23.20;90.80;;;;;;5039502;28;20303;-34
2022/05/18 06:23:51;;;;;;;8.27;3.30;;;23.30;90.90;;;;;;5047525;28;20683;-33
2022/05/18 06:26:20;;;;;;;6.38;3.30;;;23.30;90.90;;;;;;5051005;28;20264;-34
2022/05/18 06:28:49;;;;;;;8.15;3.38;;;23.30;90.90;;;;;;5050055;28;20203;-34
2022/05/18 06:31:19;;;;;;;10.73;3.30;;;23.30;91.00;;;;;;5031339;28;20210;-33
2022/05/18 06:33:51;;;;;;;7.22;3.20;;;23.40;91.10;;;;;;5047168;28;20197;-33
2022/05/18 06:36:19;;;;;;;5.45;3.03;;;23.40;91.00;;;;;;5052287;28;20243;-33
2022/05/18 06:38:48;;;;;;;5.55;3.03;;;23.50;91.10;;;;;;5038030;28;20274;-33
2022/05/18 06:41:21;;;;;;;4.90;2.90;;;23.50;91.10;;;;;;5041558;28;20193;-34
2022/05/18 06:44:02;;;;;;;5.38;2.95;;;23.60;91.20;;;;;;5038719;28;20305;-33
2022/05/18 06:46:33;;;;;;;6.82;2.50;;;23.70;91.40;;;;;;5037633;28;20215;-34
2022/05/18 06:49:03;;;;;;;3.67;2.53;;;23.80;91.30;;;;;;5044017;28;20204;-33
2022/05/18 06:51:35;;;;;;;4.53;2.92;;;23.80;91.50;;;;;;5037255;28;20300;-34
2022/05/18 06:54:03;;;;;;;3.72;3.00;;;24.00;91.70;;;;;;5029469;28;20740;-33
2022/05/18 06:56:34;;;;;;;5.32;2.78;;;24.00;91.90;;;;;;5046775;28;20267;-34
2022/05/18 06:59:04;;;;;;;3.40;2.25;;;24.20;91.80;;;;;;5030950;28;20220;-34
2022/05/18 07:01:34;;;;;;;3.75;2.40;;;24.30;91.80;;;;;;5033188;28;20291;-33
2022/05/18 07:04:06;;;;;;;3.80;2.83;;;24.30;92.10;;;;;;5047879;28;20231;-33
2022/05/18 07:06:40;;;;;;;4.55;2.70;;;24.40;92.20;;;;;;5047769;28;20192;-33
2022/05/18 07:09:13;;;;;;;4.07;2.58;;;24.50;92.30;;;;;;5036125;28;20196;-34
2022/05/18 07:11:49;;;;;;;6.47;2.90;;;24.60;92.20;;;;;;5052048;28;20632;-33
2022/05/18 07:14:19;;;;;;;7.80;3.15;;;24.60;92.30;;;;;;5042368;28;20214;-33
2022/05/18 07:16:49;;;;;;;5.68;2.50;;;24.70;92.40;;;;;;5061396;28;20214;-33
2022/05/18 07:19:17;;;;;;;3.75;2.20;;;24.70;92.30;;;;;;5055212;28;20199;-33
2022/05/18 07:21:45;;;;;;;3.95;2.63;;;24.80;92.30;;;;;;5066257;28;20239;-33
2022/05/18 07:24:12;;;;;;;5.15;2.15;;;24.80;92.30;;;;;;5067740;28;20292;-34
2022/05/18 07:26:44;;;;;;;4.35;2.28;;;24.90;92.30;;;;;;5048340;28;20704;-33
2022/05/18 07:29:13;;;;;;;7.72;2.17;;;24.90;92.30;;;;;;5043515;28;20311;-33
2022/05/18 07:34:29;;;;;;;5.00;2.40;;;25.00;92.40;;;;;;5046414;28;20373;-33
2022/05/18 07:36:56;;;;;;;3.80;2.00;;;25.10;92.40;;;;;;5047433;28;20311;-33
2022/05/18 07:39:28;;;;;;;3.60;2.10;;;25.10;92.40;;;;;;5040375;28;20208;-33
2022/05/18 07:41:57;;;;;;;3.80;2.13;;;25.10;92.40;;;;;;5036555;28;20208;-33
2022/05/18 07:44:27;;;;;;;3.83;2.10;;;25.20;92.50;;;;;;5035787;28;20223;-34
2022/05/18 07:46:55;;;;;;;3.58;2.38;;;25.20;92.50;;;;;;5050690;28;20290;-34
2022/05/18 07:49:23;;;;;;;5.47;2.40;;;25.30;92.70;;;;;;5045310;28;20204;-33
2022/05/18 07:51:50;;;;;;;2.38;1.55;;;25.30;92.60;;;;;;5050269;28;20702;-33
2022/05/18 07:54:17;;;;;;;1.85;1.50;;;25.30;92.60;;;;;;5047917;28;20270;-34
2022/05/18 07:56:47;;;;;;;4.43;2.00;;;25.30;92.60;;;;;;5048755;28;20238;-34
2022/05/18 07:59:14;;;;;;;2.03;1.50;;;25.40;92.60;;;;;;5044736;28;20223;-34
2022/05/18 08:01:44;;;;;;;3.63;1.80;;;25.40;92.50;;;;;;5037498;28;20196;-34
2022/05/18 08:04:11;;;;;;;3.53;1.92;;;25.50;92.60;;;;;;5052060;28;20302;-34
2022/05/18 08:06:38;;;;;;;2.70;1.58;;;25.50;92.60;;;;;;5071228;28;20199;-35
2022/05/18 08:09:06;;;;;;;4.55;1.85;;;25.50;92.50;;;;;;5059829;28;20211;-34
2022/05/18 08:17:21;;;;;;;2.17;1.70;;;25.50;92.30;;;;;;5061094;28;20217;-35
2022/05/18 08:19:51;;;;;;;3.53;1.55;;;25.50;92.60;;;;;;5063799;28;20207;-34
2022/05/18 08:22:21;;;;;;;2.28;1.40;;;25.40;92.20;;;;;;5058392;28;20212;-34
2022/05/18 08:24:49;;;;;;;5.10;2.30;;;25.40;92.10;;;;;;5044979;28;20638;-34
2022/05/18 08:27:16;;;;;;;3.20;1.70;;;25.40;92.00;;;;;;5046765;28;20200;-35
2022/05/18 08:29:44;;;;;;;1.58;1.35;;;25.30;92.00;;;;;;5049646;28;20232;-34
2022/05/18 08:32:11;;;;;;;2.15;1.40;;;25.30;92.00;;;;;;5044651;28;20211;-34
2022/05/18 08:34:38;;;;;;;4.47;1.58;;;25.30;92.00;;;;;;5033020;28;20973;-34
2022/05/18 08:37:10;;;;;;;3.45;1.83;;;25.30;92.10;;;;;;5045863;28;20219;-34
2022/05/18 08:39:41;;;;;;;3.55;2.00;;;25.30;92.20;;;;;;5039149;28;20208;-34
2022/05/18 08:42:10;;;;;;;3.90;2.20;;;25.30;92.30;;;;;;5065790;28;20688;-34
2022/05/18 08:44:37;;;;;;;4.28;1.92;;;25.20;92.20;;;;;;5062677;28;20254;-34
2022/05/18 08:47:05;;;;;;;2.60;1.58;;;25.20;92.20;;;;;;5047849;28;20566;-34
2022/05/18 08:50:01;;;;;;;4.03;1.75;;;25.30;92.20;;;;;;5031260;28;20204;-34
2022/05/18 08:53:03;;;;;;;3.58;1.60;;;25.30;92.30;;;;;;5045216;28;20570;-34
2022/05/18 08:55:44;;;;;;;3.88;1.75;;;25.30;92.30;;;;;;5030158;28;20247;-35
2022/05/18 08:58:45;;;;;;;3.15;1.50;;;25.30;92.30;;;;;;5043821;28;20247;-34
2022/05/18 09:01:34;;;;;;;3.28;1.70;;;25.30;92.30;;;;;;5048358;28;20252;-34
2022/05/18 09:04:19;;;;;;;2.88;1.38;;;25.30;92.20;;;;;;5046914;28;20518;-34
2022/05/18 09:07:05;;;;;;;1.58;1.30;;;25.30;92.10;;;;;;5046352;28;20295;-34
2022/05/18 09:12:40;;;;;;;3.70;1.52;;;25.30;91.90;;;;;;5040941;28;20207;-35
2022/05/18 09:15:17;;;;;;;2.35;1.20;;;25.30;91.80;;;;;;5059213;28;20228;-34
2022/05/18 09:18:01;;;;;;;1.75;1.10;;;25.30;91.90;;;;;;5040674;28;20211;-34
2022/05/18 09:20:57;;;;;;;2.05;1.30;;;25.30;91.90;;;;;;5061881;28;20751;-34
2022/05/18 09:24:11;;;;;;;1.38;1.00;;;25.20;91.80;;;;;;5058855;28;20235;-35
2022/05/18 09:27:06;;;;;;;2.75;1.27;;;25.20;91.80;;;;;;5046711;28;20321;-34
2022/05/18 09:29:39;;;;;;;2.35;1.60;;;25.30;91.80;;;;;;5048143;28;20261;-35
2022/05/18 09:32:48;;;;;;;5.15;1.60;;;25.30;91.90;;;;;;5068524;28;20191;-35
2022/05/18 09:35:17;;;;;;;2.53;1.30;;;25.40;91.90;;;;;;5061927;28;20204;-34
2022/05/18 09:37:54;;;;;;;2.72;1.20;;;25.40;91.90;;;;;;5045753;28;20200;-34
2022/05/18 09:40:29;;;;;;;8.00;1.95;;;25.40;91.90;;;;;;5038474;28;20215;-34
2022/05/18 09:43:18;;;;;;;1.63;1.52;;;25.40;91.90;;;;;;5046409;28;20270;-34
2022/05/18 09:45:48;;;;;;;3.10;1.80;;;25.50;92.00;;;;;;5036070;28;20350;-35
2022/05/18 09:48:29;;;;;;;1.58;1.02;;;25.60;92.00;;;;;;5052752;28;20222;-34
2022/05/18 09:50:59;;;;;;;2.22;1.20;;;25.60;92.00;;;;;;5046257;28;20208;-35
2022/05/18 09:53:29;;;;;;;2.28;1.30;;;25.70;92.00;;;;;;5048467;28;20204;-34
2022/05/18 09:55:59;;;;;;;2.55;1.30;;;25.70;92.00;;;;;;5066836;28;20249;-34
2022/05/18 09:58:38;;;;;;;4.82;1.35;;;25.70;91.90;;;;;;5041922;28;20196;-39
2022/05/18 10:09:43;;;;;;;0.90;0.80;;;25.90;91.60;;;;;;5039525;28;20648;-39
2022/05/18 10:12:12;;;;;;;1.48;0.70;;;25.80;91.60;;;;;;5044986;28;20200;-39
2022/05/18 10:14:40;;;;;;;1.67;1.00;;;25.80;91.60;;;;;;5051406;28;20343;-39
2022/05/18 10:17:14;;;;;;;4.07;0.77;;;25.80;91.30;;;;;;5060673;28;20239;-39
2022/05/18 10:19:46;;;;;;;1.85;1.15;;;25.90;91.30;;;;;;5038103;28;20246;-38
2022/05/18 10:22:24;;;;;;;1.38;1.00;;;25.90;91.30;;;;;;5026927;28;20213;-39
2022/05/18 10:24:57;;;;;;;1.13;0.77;;;25.90;91.20;;;;;;5032928;28;20278;-39
2022/05/18 10:27:34;;;;;;;1.52;0.80;;;25.90;91.40;;;;;;5037188;28;20253;-39
2022/05/18 10:30:09;;;;;;;2.00;0.75;;;25.90;91.40;;;;;;5046903;28;20291;-39
2022/05/18 10:32:56;;;;;;;1.25;0.50;;;25.90;91.50;;;;;;5048668;28;20290;-39
2022/05/18 10:35:35;;;;;;;2.28;0.90;;;26.00;91.30;;;;;;5042925;28;20627;-39
2022/05/18 10:38:19;;;;;;;2.25;0.85;;;26.00;91.20;;;;;;5061765;28;20226;-39
2022/05/18 10:40:47;;;;;;;0.93;0.70;;;26.00;91.30;;;;;;5042044;28;20236;-39
2022/05/18 10:43:23;;;;;;;2.70;1.10;;;26.00;91.40;;;;;;5049987;28;20258;-38
2022/05/18 10:46:20;;;;;;;0.93;0.60;;;26.00;91.40;;;;;;5053759;28;20193;-39
2022/05/18 10:48:59;;;;;;;2.60;0.80;;;26.00;91.40;;;;;;5047164;28;20315;-39
2022/05/18 10:51:39;;;;;;;1.35;0.90;;;26.00;91.70;;;;;;5043685;28;20216;-39
2022/05/18 10:54:13;;;;;;;2.67;1.20;;;26.00;91.30;;;;;;5057964;28;20592;-39
2022/05/18 10:56:44;;;;;;;5.18;1.38;;;26.00;91.30;;;;;;5037046;28;20773;-39
2022/05/18 10:59:17;;;;;;;1.80;0.90;;;26.00;91.40;;;;;;5033244;28;20210;-39
2022/05/18 11:02:02;;;;;;;1.63;0.80;;;26.10;91.40;;;;;;5038740;28;20195;-39
2022/05/18 11:04:47;;;;;;;2.53;0.70;;;26.10;91.40;;;;;;5048835;28;20314;-39
2022/05/18 11:07:23;;;;;;;1.55;1.00;;;26.20;91.50;;;;;;5044699;28;20207;-39
2022/05/18 11:09:51;;;;;;;1.70;1.10;;;26.20;91.50;;;;;;5049139;28;20785;-39
2022/05/18 11:12:47;;;;;;;2.03;1.02;;;26.30;91.50;;;;;;5048696;28;20662;-39
2022/05/18 11:15:22;;;;;;;1.45;0.70;;;26.30;91.50;;;;;;5055937;28;20199;-39
2022/05/18 11:18:07;;;;;;;1.75;1.10;;;26.40;91.60;;;;;;5054039;28;20709;-39
2022/05/18 11:20:43;;;;;;;3.03;1.40;;;26.40;91.60;;;;;;5037214;28;20665;-40
2022/05/18 11:23:29;;;;;;;1.52;1.10;;;26.50;91.40;;;;;;5043704;28;20948;-39
2022/05/18 11:26:09;;;;;;;1.45;0.90;;;26.50;91.30;;;;;;5038141;28;20389;-39
2022/05/18 11:29:21;;;;;;;1.90;1.05;;;26.50;91.40;;;;;;5026999;28;20204;-39
2022/05/18 11:32:03;;;;;;;1.33;0.85;;;26.60;91.50;;;;;;5029538;28;20224;-34
2022/05/18 11:34:46;;;;;;;5.03;1.08;;;26.60;91.50;;;;;;5038867;28;20766;-35
2022/05/18 11:37:49;;;;;;;1.58;0.70;;;26.60;91.50;;;;;;5048776;28;20269;-34
2022/05/18 11:40:46;;;;;;;4.40;1.00;;;26.70;91.40;;;;;;5041660;28;20210;-34
2022/05/18 11:43:25;;;;;;;3.08;1.23;;;26.80;91.60;;;;;;5036264;28;20234;-39
2022/05/18 11:46:01;;;;;;;4.22;1.75;;;26.80;91.50;;;;;;5066347;28;20477;-39
2022/05/18 11:48:50;;;;;;;3.42;1.05;;;26.80;91.50;;;;;;5037837;28;20402;-39
2022/05/18 11:51:42;;;;;;;4.80;1.73;;;26.90;91.40;;;;;;5049833;28;20202;-39
2022/05/18 11:54:37;;;;;;;2.42;1.05;;;26.90;91.60;;;;;;5047198;28;20671;-39
2022/05/18 11:57:23;;;;;;;1.95;1.10;;;27.00;91.70;;;;;;5040391;28;20240;-34
2022/05/18 12:00:08;;;;;;;2.38;1.40;;;27.10;91.70;;;;;;5027055;28;20239;-34
2022/05/18 12:02:56;;;;;;;2.17;1.10;;;27.10;91.60;;;;;;5050880;28;20244;-34
2022/05/18 12:05:47;;;;;;;2.05;1.00;;;27.10;91.70;;;;;;5041338;28;20319;-35
2022/05/18 12:08:36;;;;;;;2.63;1.30;;;27.20;91.60;;;;;;5040260;28;20556;-35
2022/05/18 12:11:30;;;;;;;5.10;1.40;;;27.20;91.60;;;;;;5049163;28;20308;-35
2022/05/18 12:14:00;;;;;;;2.33;1.15;;;27.30;91.70;;;;;;5046496;28;20207;-35
2022/05/18 12:16:39;;;;;;;1.52;1.02;;;27.30;91.70;;;;;;5033223;28;20202;-34
2022/05/18 12:19:44;;;;;;;3.40;1.30;;;27.40;91.80;;;;;;5039540;28;20735;-34
2022/05/18 12:22:19;;;;;;;3.78;1.00;;;27.50;91.80;;;;;;5070488;28;20239;-35
2022/05/18 12:24:50;;;;;;;2.03;1.10;;;27.50;91.90;;;;;;5048532;28;20631;-34
2022/05/18 12:27:20;;;;;;;3.88;1.20;;;27.60;92.00;;;;;;5045995;28;20301;-35
2022/05/18 12:29:50;;;;;;;2.85;1.13;;;27.70;92.00;;;;;;5036668;28;20264;-34
2022/05/18 12:32:21;;;;;;;2.53;1.45;;;27.80;92.00;;;;;;5030932;28;20193;-35
2022/05/18 12:35:31;;;;;;;2.95;1.30;;;27.80;91.60;;;;;;5035392;28;20205;-34
2022/05/18 12:38:02;;;;;;;2.88;1.15;;;27.80;91.60;;;;;;5027781;28;20205;-35
2022/05/18 12:41:06;;;;;;;2.03;1.10;;;27.90;91.70;;;;;;5045928;28;20204;-34
2022/05/18 12:43:43;;;;;;;2.63;1.25;;;27.90;92.10;;;;;;5049536;28;20595;-34
2022/05/18 12:46:44;;;;;;;2.60;0.90;;;27.90;91.80;;;;;;5070452;28;20212;-39
2022/05/18 12:49:28;;;;;;;3.63;1.40;;;28.00;91.90;;;;;;5038446;28;20196;-39
2022/05/18 12:52:03;;;;;;;2.75;1.40;;;28.10;91.80;;;;;;5037425;28;20683;-39
2022/05/18 12:54:42;;;;;;;1.75;1.25;;;28.10;91.50;;;;;;5066876;28;20726;-39
2022/05/18 12:57:14;;;;;;;1.70;1.00;;;28.10;91.50;;;;;;5057192;28;20230;-39
2022/05/18 13:00:03;;;;;;;1.98;1.10;;;28.10;91.60;;;;;;5057654;28;20199;-39
2022/05/18 13:02:48;;;;;;;1.73;1.08;;;28.20;91.60;;;;;;5060629;28;20314;-39
2022/05/18 13:05:25;;;;;;;3.53;1.52;;;28.20;91.70;;;;;;5054153;28;20623;-39
2022/05/18 13:07:57;;;;;;;2.65;1.38;;;28.30;91.50;;;;;;5046633;28;20207;-39
2022/05/18 13:10:34;;;;;;;3.65;1.27;;;28.40;91.70;;;;;;5048675;28;20211;-39
2022/05/18 13:13:25;;;;;;;2.20;1.42;;;28.40;91.60;;;;;;5047835;28;20302;-39
2022/05/18 13:15:59;;;;;;;3.13;1.38;;;28.50;91.50;;;;;;5054010;28;20306;-39
2022/05/18 13:18:34;;;;;;;1.73;1.20;;;28.50;91.60;;;;;;5057097;28;20737;-39
2022/05/18 13:21:07;;;;;;;1.42;1.05;;;28.50;91.70;;;;;;5062164;28;20219;-39
2022/05/18 13:24:02;;;;;;;2.05;1.23;;;28.60;91.70;;;;;;5042698;28;20204;-40
2022/05/18 13:26:36;;;;;;;2.92;1.50;;;28.60;91.70;;;;;;5045250;28;20274;-39
2022/05/18 13:29:11;;;;;;;2.08;1.45;;;28.60;91.40;;;;;;5049352;28;20258;-39
2022/05/18 13:31:45;;;;;;;1.90;1.40;;;28.70;91.40;;;;;;5052001;28;20750;-40
2022/05/18 13:34:21;;;;;;;3.05;1.27;;;28.70;91.50;;;;;;5069846;28;20203;-39
2022/05/18 13:37:01;;;;;;;4.50;1.08;;;28.80;91.60;;;;;;5069219;28;20223;-39
2022/05/18 13:39:46;;;;;;;15.95;2.75;;;28.80;91.60;;;;;;5053841;28;20654;-39
2022/05/18 13:42:22;;;;;;;8.05;1.80;;;28.90;91.70;;;;;;5044181;28;20209;-39
2022/05/18 13:45:03;;;;;;;5.10;1.63;;;28.90;91.70;;;;;;5029015;28;20668;-40